sensor_id;sensor_type;location;lat;lon;timestamp;P1;durP1;ratioP1;P2;durP2;ratioP2
17595;SDS011;8916;47.086;15.920;2023-04-01T00:00:09;16.55;;;13.30;;
17595;SDS011;8916;47.086;15.920;2023-04-01T00:02:39;19.67;;;13.20;;
17595;SDS011;8916;47.086;15.920;2023-04-01T00:05:09;15.30;;;10.70;;
17595;SDS011;8916;47.086;15.920;2023-04-01T00:07:39;15.80;;;10.80;;
17595;SDS011;8916;47.086;15.920;2023-04-01T00:10:11;14.95;;;9.68;;
17595;SDS011;8916;47.086;15.920;2023-04-01T00:12:41;15.68;;;10.27;;
17595;SDS011;8916;47.086;15.920;2023-04-01T00:15:11;12.93;;;9.10;;
17595;SDS011;8916;47.086;15.920;2023-04-01T00:17:41;12.20;;;9.05;;
17595;SDS011;8916;47.086;15.920;2023-04-01T00:20:11;18.77;;;9.85;;
17595;SDS011;8916;47.086;15.920;2023-04-01T00:22:41;15.70;;;9.43;;
17595;SDS011;8916;47.086;15.920;2023-04-01T00:25:11;13.95;;;9.90;;
17595;SDS011;8916;47.086;15.920;2023-04-01T00:27:41;12.98;;;9.57;;
17595;SDS011;8916;47.086;15.920;2023-04-01T00:30:11;14.35;;;9.73;;
17595;SDS011;8916;47.086;15.920;2023-04-01T00:32:42;17.98;;;11.10;;
17595;SDS011;8916;47.086;15.920;2023-04-01T00:35:12;15.00;;;9.73;;
17595;SDS011;8916;47.086;15.920;2023-04-01T00:37:41;12.80;;;10.13;;
17595;SDS011;8916;47.086;15.920;2023-04-01T00:40:22;13.82;;;10.43;;
17595;SDS011;8916;47.086;15.920;2023-04-01T00:42:56;15.75;;;9.68;;
17595;SDS011;8916;47.086;15.920;2023-04-01T00:45:27;12.68;;;9.23;;
17595;SDS011;8916;47.086;15.920;2023-04-01T00:48:02;12.82;;;8.57;;
17595;SDS011;8916;47.086;15.920;2023-04-01T00:50:35;16.98;;;10.43;;
17595;SDS011;8916;47.086;15.920;2023-04-01T00:53:08;14.10;;;10.05;;
17595;SDS011;8916;47.086;15.920;2023-04-01T00:55:41;11.32;;;9.13;;
17595;SDS011;8916;47.086;15.920;2023-04-01T00:58:18;12.65;;;8.52;;
17595;SDS011;8916;47.086;15.920;2023-04-01T01:00:52;12.00;;;8.73;;
17595;SDS011;8916;47.086;15.920;2023-04-01T01:03:23;12.90;;;10.18;;
17595;SDS011;8916;47.086;15.920;2023-04-01T01:05:57;14.23;;;10.10;;
17595;SDS011;8916;47.086;15.920;2023-04-01T01:08:56;11.30;;;8.98;;
17595;SDS011;8916;47.086;15.920;2023-04-01T01:11:48;13.55;;;10.05;;
17595;SDS011;8916;47.086;15.920;2023-04-01T01:14:25;13.05;;;10.48;;
17595;SDS011;8916;47.086;15.920;2023-04-01T01:17:12;13.07;;;9.20;;
17595;SDS011;8916;47.086;15.920;2023-04-01T01:19:57;12.48;;;9.45;;
17595;SDS011;8916;47.086;15.920;2023-04-01T01:22:59;12.02;;;9.65;;
17595;SDS011;8916;47.086;15.920;2023-04-01T01:26:11;13.38;;;9.15;;
17595;SDS011;8916;47.086;15.920;2023-04-01T01:29:00;11.75;;;8.68;;
17595;SDS011;8916;47.086;15.920;2023-04-01T01:31:42;13.98;;;8.50;;
17595;SDS011;8916;47.086;15.920;2023-04-01T01:34:19;13.93;;;9.80;;
17595;SDS011;8916;47.086;15.920;2023-04-01T01:36:58;13.32;;;9.32;;
17595;SDS011;8916;47.086;15.920;2023-04-01T01:39:31;15.00;;;10.30;;
17595;SDS011;8916;47.086;15.920;2023-04-01T01:42:04;12.35;;;10.00;;
17595;SDS011;8916;47.086;15.920;2023-04-01T01:44:37;17.70;;;11.25;;
17595;SDS011;8916;47.086;15.920;2023-04-01T01:47:09;17.48;;;10.15;;
17595;SDS011;8916;47.086;15.920;2023-04-01T01:49:40;13.30;;;10.45;;
17595;SDS011;8916;47.086;15.920;2023-04-01T01:52:13;13.15;;;10.13;;
17595;SDS011;8916;47.086;15.920;2023-04-01T01:54:47;14.27;;;9.63;;
17595;SDS011;8916;47.086;15.920;2023-04-01T01:57:19;11.43;;;8.82;;
17595;SDS011;8916;47.086;15.920;2023-04-01T01:59:58;10.13;;;7.95;;
17595;SDS011;8916;47.086;15.920;2023-04-01T02:02:38;10.77;;;9.07;;
17595;SDS011;8916;47.086;15.920;2023-04-01T02:05:09;12.15;;;9.77;;
17595;SDS011;8916;47.086;15.920;2023-04-01T02:07:45;12.35;;;9.32;;
17595;SDS011;8916;47.086;15.920;2023-04-01T02:10:22;13.05;;;9.85;;
17595;SDS011;8916;47.086;15.920;2023-04-01T02:12:56;13.50;;;9.32;;
17595;SDS011;8916;47.086;15.920;2023-04-01T02:15:30;11.82;;;8.75;;
17595;SDS011;8916;47.086;15.920;2023-04-01T02:18:04;11.02;;;8.68;;
17595;SDS011;8916;47.086;15.920;2023-04-01T02:20:34;10.85;;;8.02;;
17595;SDS011;8916;47.086;15.920;2023-04-01T02:23:06;12.50;;;8.05;;
17595;SDS011;8916;47.086;15.920;2023-04-01T02:25:38;9.25;;;6.97;;
17595;SDS011;8916;47.086;15.920;2023-04-01T02:28:10;17.30;;;7.10;;
17595;SDS011;8916;47.086;15.920;2023-04-01T02:30:43;9.30;;;6.85;;
17595;SDS011;8916;47.086;15.920;2023-04-01T02:33:14;8.25;;;6.38;;
17595;SDS011;8916;47.086;15.920;2023-04-01T02:35:43;11.35;;;6.72;;
17595;SDS011;8916;47.086;15.920;2023-04-01T02:38:14;9.15;;;6.32;;
17595;SDS011;8916;47.086;15.920;2023-04-01T02:40:44;7.72;;;6.35;;
17595;SDS011;8916;47.086;15.920;2023-04-01T02:43:16;8.85;;;6.40;;
17595;SDS011;8916;47.086;15.920;2023-04-01T02:45:47;10.15;;;7.03;;
17595;SDS011;8916;47.086;15.920;2023-04-01T02:48:16;11.38;;;7.57;;
17595;SDS011;8916;47.086;15.920;2023-04-01T02:50:45;10.98;;;7.50;;
17595;SDS011;8916;47.086;15.920;2023-04-01T02:53:16;8.52;;;7.10;;
17595;SDS011;8916;47.086;15.920;2023-04-01T02:55:45;11.68;;;7.25;;
17595;SDS011;8916;47.086;15.920;2023-04-01T02:58:17;9.15;;;6.95;;
17595;SDS011;8916;47.086;15.920;2023-04-01T03:00:46;10.02;;;6.80;;
17595;SDS011;8916;47.086;15.920;2023-04-01T03:03:16;11.80;;;7.95;;
17595;SDS011;8916;47.086;15.920;2023-04-01T03:05:45;11.45;;;7.35;;
17595;SDS011;8916;47.086;15.920;2023-04-01T03:08:15;9.52;;;7.32;;
17595;SDS011;8916;47.086;15.920;2023-04-01T03:10:44;9.77;;;7.55;;
17595;SDS011;8916;47.086;15.920;2023-04-01T03:13:13;10.68;;;7.63;;
17595;SDS011;8916;47.086;15.920;2023-04-01T03:15:43;11.55;;;7.60;;
17595;SDS011;8916;47.086;15.920;2023-04-01T03:18:12;9.90;;;7.13;;
17595;SDS011;8916;47.086;15.920;2023-04-01T03:20:42;10.70;;;7.28;;
17595;SDS011;8916;47.086;15.920;2023-04-01T03:23:11;12.30;;;8.05;;
17595;SDS011;8916;47.086;15.920;2023-04-01T03:25:41;12.98;;;8.85;;
17595;SDS011;8916;47.086;15.920;2023-04-01T03:28:10;23.17;;;11.25;;
17595;SDS011;8916;47.086;15.920;2023-04-01T03:30:40;18.40;;;12.27;;
17595;SDS011;8916;47.086;15.920;2023-04-01T03:33:10;20.23;;;12.93;;
17595;SDS011;8916;47.086;15.920;2023-04-01T03:35:39;21.55;;;13.38;;
17595;SDS011;8916;47.086;15.920;2023-04-01T03:38:08;16.20;;;11.38;;
17595;SDS011;8916;47.086;15.920;2023-04-01T03:40:37;13.43;;;9.70;;
17595;SDS011;8916;47.086;15.920;2023-04-01T03:43:12;15.50;;;10.65;;
17595;SDS011;8916;47.086;15.920;2023-04-01T03:45:44;15.35;;;10.02;;
17595;SDS011;8916;47.086;15.920;2023-04-01T03:48:13;13.30;;;9.48;;
17595;SDS011;8916;47.086;15.920;2023-04-01T03:50:43;10.10;;;8.18;;
17595;SDS011;8916;47.086;15.920;2023-04-01T03:53:14;12.00;;;6.95;;
17595;SDS011;8916;47.086;15.920;2023-04-01T03:55:47;8.50;;;6.53;;
17595;SDS011;8916;47.086;15.920;2023-04-01T03:58:18;13.13;;;6.97;;
17595;SDS011;8916;47.086;15.920;2023-04-01T04:00:48;8.10;;;6.32;;
17595;SDS011;8916;47.086;15.920;2023-04-01T04:03:17;8.93;;;6.75;;
17595;SDS011;8916;47.086;15.920;2023-04-01T04:05:47;13.98;;;8.13;;
17595;SDS011;8916;47.086;15.920;2023-04-01T04:08:18;10.80;;;7.88;;
17595;SDS011;8916;47.086;15.920;2023-04-01T04:10:55;8.63;;;6.45;;
17595;SDS011;8916;47.086;15.920;2023-04-01T04:13:25;9.85;;;6.60;;
17595;SDS011;8916;47.086;15.920;2023-04-01T04:15:59;8.45;;;6.20;;
17595;SDS011;8916;47.086;15.920;2023-04-01T04:18:29;8.98;;;5.82;;
17595;SDS011;8916;47.086;15.920;2023-04-01T04:20:58;8.80;;;5.97;;
17595;SDS011;8916;47.086;15.920;2023-04-01T04:23:27;8.80;;;5.63;;
17595;SDS011;8916;47.086;15.920;2023-04-01T04:25:59;9.13;;;6.10;;
17595;SDS011;8916;47.086;15.920;2023-04-01T04:28:32;11.35;;;6.80;;
17595;SDS011;8916;47.086;15.920;2023-04-01T04:31:02;10.30;;;6.75;;
17595;SDS011;8916;47.086;15.920;2023-04-01T04:33:34;8.77;;;6.20;;
17595;SDS011;8916;47.086;15.920;2023-04-01T04:36:04;8.82;;;6.20;;
17595;SDS011;8916;47.086;15.920;2023-04-01T04:38:34;10.48;;;6.82;;
17595;SDS011;8916;47.086;15.920;2023-04-01T04:41:09;10.30;;;7.00;;
17595;SDS011;8916;47.086;15.920;2023-04-01T04:43:40;10.95;;;6.97;;
17595;SDS011;8916;47.086;15.920;2023-04-01T04:46:10;11.70;;;6.45;;
17595;SDS011;8916;47.086;15.920;2023-04-01T04:48:40;10.20;;;7.13;;
17595;SDS011;8916;47.086;15.920;2023-04-01T04:51:12;11.60;;;6.82;;
17595;SDS011;8916;47.086;15.920;2023-04-01T04:53:43;12.73;;;7.93;;
17595;SDS011;8916;47.086;15.920;2023-04-01T04:56:16;9.13;;;6.57;;
17595;SDS011;8916;47.086;15.920;2023-04-01T04:58:57;9.48;;;6.93;;
17595;SDS011;8916;47.086;15.920;2023-04-01T05:01:39;9.32;;;6.53;;
17595;SDS011;8916;47.086;15.920;2023-04-01T05:04:08;12.25;;;6.95;;
17595;SDS011;8916;47.086;15.920;2023-04-01T05:06:38;12.88;;;5.97;;
17595;SDS011;8916;47.086;15.920;2023-04-01T05:09:07;8.90;;;6.75;;
17595;SDS011;8916;47.086;15.920;2023-04-01T05:11:37;12.63;;;7.28;;
17595;SDS011;8916;47.086;15.920;2023-04-01T05:14:11;8.52;;;6.20;;
17595;SDS011;8916;47.086;15.920;2023-04-01T05:16:44;12.02;;;7.40;;
17595;SDS011;8916;47.086;15.920;2023-04-01T05:19:13;10.10;;;6.55;;
17595;SDS011;8916;47.086;15.920;2023-04-01T05:21:43;12.43;;;7.53;;
17595;SDS011;8916;47.086;15.920;2023-04-01T05:24:12;12.57;;;7.50;;
17595;SDS011;8916;47.086;15.920;2023-04-01T05:26:43;11.77;;;7.65;;
17595;SDS011;8916;47.086;15.920;2023-04-01T05:29:12;10.55;;;6.63;;
17595;SDS011;8916;47.086;15.920;2023-04-01T05:31:43;15.15;;;6.97;;
17595;SDS011;8916;47.086;15.920;2023-04-01T05:34:12;9.52;;;6.30;;
17595;SDS011;8916;47.086;15.920;2023-04-01T05:36:42;11.07;;;6.90;;
17595;SDS011;8916;47.086;15.920;2023-04-01T05:39:12;7.93;;;5.95;;
17595;SDS011;8916;47.086;15.920;2023-04-01T05:41:44;10.95;;;6.05;;
17595;SDS011;8916;47.086;15.920;2023-04-01T05:44:13;11.20;;;6.03;;
17595;SDS011;8916;47.086;15.920;2023-04-01T05:46:42;11.60;;;5.97;;
17595;SDS011;8916;47.086;15.920;2023-04-01T05:49:22;8.45;;;6.13;;
17595;SDS011;8916;47.086;15.920;2023-04-01T05:51:55;10.70;;;6.07;;
17595;SDS011;8916;47.086;15.920;2023-04-01T05:54:25;13.23;;;7.05;;
17595;SDS011;8916;47.086;15.920;2023-04-01T05:56:55;11.80;;;6.00;;
17595;SDS011;8916;47.086;15.920;2023-04-01T05:59:24;9.43;;;5.85;;
17595;SDS011;8916;47.086;15.920;2023-04-01T06:01:53;10.80;;;6.65;;
17595;SDS011;8916;47.086;15.920;2023-04-01T06:04:26;12.70;;;6.32;;
17595;SDS011;8916;47.086;15.920;2023-04-01T06:07:01;9.15;;;6.80;;
17595;SDS011;8916;47.086;15.920;2023-04-01T06:09:40;8.68;;;5.90;;
17595;SDS011;8916;47.086;15.920;2023-04-01T06:12:17;9.23;;;5.20;;
17595;SDS011;8916;47.086;15.920;2023-04-01T06:15:09;8.35;;;4.97;;
17595;SDS011;8916;47.086;15.920;2023-04-01T06:21:31;7.72;;;4.50;;
17595;SDS011;8916;47.086;15.920;2023-04-01T06:24:19;7.47;;;4.25;;
17595;SDS011;8916;47.086;15.920;2023-04-01T06:27:02;6.43;;;4.25;;
17595;SDS011;8916;47.086;15.920;2023-04-01T06:29:46;5.72;;;4.47;;
17595;SDS011;8916;47.086;15.920;2023-04-01T06:32:30;9.00;;;4.80;;
17595;SDS011;8916;47.086;15.920;2023-04-01T06:38:41;5.80;;;4.22;;
17595;SDS011;8916;47.086;15.920;2023-04-01T06:41:26;9.93;;;4.40;;
17595;SDS011;8916;47.086;15.920;2023-04-01T06:44:19;7.35;;;4.25;;
17595;SDS011;8916;47.086;15.920;2023-04-01T06:47:22;7.15;;;4.32;;
17595;SDS011;8916;47.086;15.920;2023-04-01T06:50:24;6.45;;;4.15;;
17595;SDS011;8916;47.086;15.920;2023-04-01T06:53:18;7.75;;;3.97;;
17595;SDS011;8916;47.086;15.920;2023-04-01T06:56:10;6.57;;;4.18;;
17595;SDS011;8916;47.086;15.920;2023-04-01T06:58:55;10.38;;;4.65;;
17595;SDS011;8916;47.086;15.920;2023-04-01T07:01:31;6.70;;;4.60;;
17595;SDS011;8916;47.086;15.920;2023-04-01T07:04:06;7.93;;;4.68;;
17595;SDS011;8916;47.086;15.920;2023-04-01T07:06:43;6.38;;;3.92;;
17595;SDS011;8916;47.086;15.920;2023-04-01T07:09:18;4.40;;;3.50;;
17595;SDS011;8916;47.086;15.920;2023-04-01T07:12:10;6.53;;;4.15;;
17595;SDS011;8916;47.086;15.920;2023-04-01T07:15:10;5.25;;;3.22;;
17595;SDS011;8916;47.086;15.920;2023-04-01T07:17:47;4.03;;;2.70;;
17595;SDS011;8916;47.086;15.920;2023-04-01T07:20:25;9.15;;;3.65;;
17595;SDS011;8916;47.086;15.920;2023-04-01T07:22:58;4.90;;;3.03;;
17595;SDS011;8916;47.086;15.920;2023-04-01T07:25:38;10.90;;;2.90;;
17595;SDS011;8916;47.086;15.920;2023-04-01T07:28:40;4.93;;;2.80;;
17595;SDS011;8916;47.086;15.920;2023-04-01T07:31:28;6.10;;;2.78;;
17595;SDS011;8916;47.086;15.920;2023-04-01T07:34:18;5.82;;;2.92;;
17595;SDS011;8916;47.086;15.920;2023-04-01T07:36:56;6.20;;;2.75;;
17595;SDS011;8916;47.086;15.920;2023-04-01T07:39:37;7.00;;;3.47;;
17595;SDS011;8916;47.086;15.920;2023-04-01T07:42:31;4.93;;;2.88;;
17595;SDS011;8916;47.086;15.920;2023-04-01T07:45:14;12.15;;;3.13;;
17595;SDS011;8916;47.086;15.920;2023-04-01T07:47:59;7.43;;;2.85;;
17595;SDS011;8916;47.086;15.920;2023-04-01T07:50:42;4.13;;;2.30;;
17595;SDS011;8916;47.086;15.920;2023-04-01T07:53:24;3.75;;;2.00;;
17595;SDS011;8916;47.086;15.920;2023-04-01T07:56:06;2.80;;;1.95;;
17595;SDS011;8916;47.086;15.920;2023-04-01T07:58:45;4.13;;;2.20;;
17595;SDS011;8916;47.086;15.920;2023-04-01T08:01:54;5.25;;;2.20;;
17595;SDS011;8916;47.086;15.920;2023-04-01T08:04:37;4.03;;;2.03;;
17595;SDS011;8916;47.086;15.920;2023-04-01T08:07:25;3.33;;;2.08;;
17595;SDS011;8916;47.086;15.920;2023-04-01T08:10:25;5.18;;;2.03;;
17595;SDS011;8916;47.086;15.920;2023-04-01T08:13:23;3.22;;;2.13;;
17595;SDS011;8916;47.086;15.920;2023-04-01T08:16:18;2.97;;;2.08;;
17595;SDS011;8916;47.086;15.920;2023-04-01T08:18:58;2.97;;;1.95;;
17595;SDS011;8916;47.086;15.920;2023-04-01T08:21:38;2.78;;;1.92;;
17595;SDS011;8916;47.086;15.920;2023-04-01T08:24:14;3.25;;;2.10;;
17595;SDS011;8916;47.086;15.920;2023-04-01T08:27:06;2.90;;;2.28;;
17595;SDS011;8916;47.086;15.920;2023-04-01T08:29:48;2.45;;;2.00;;
17595;SDS011;8916;47.086;15.920;2023-04-01T08:32:26;2.83;;;2.00;;
17595;SDS011;8916;47.086;15.920;2023-04-01T08:35:06;3.63;;;2.10;;
17595;SDS011;8916;47.086;15.920;2023-04-01T08:37:42;3.55;;;1.98;;
17595;SDS011;8916;47.086;15.920;2023-04-01T08:40:25;2.50;;;1.70;;
17595;SDS011;8916;47.086;15.920;2023-04-01T08:43:15;4.35;;;1.95;;
17595;SDS011;8916;47.086;15.920;2023-04-01T08:45:53;4.95;;;2.15;;
17595;SDS011;8916;47.086;15.920;2023-04-01T08:48:48;3.42;;;1.70;;
17595;SDS011;8916;47.086;15.920;2023-04-01T08:51:40;5.22;;;1.98;;
17595;SDS011;8916;47.086;15.920;2023-04-01T08:58:16;3.22;;;2.30;;
17595;SDS011;8916;47.086;15.920;2023-04-01T09:01:41;2.45;;;1.52;;
17595;SDS011;8916;47.086;15.920;2023-04-01T09:08:07;3.47;;;1.65;;
17595;SDS011;8916;47.086;15.920;2023-04-01T09:10:59;2.08;;;1.23;;
17595;SDS011;8916;47.086;15.920;2023-04-01T09:14:11;1.77;;;1.40;;
17595;SDS011;8916;47.086;15.920;2023-04-01T09:17:21;1.70;;;1.20;;
17595;SDS011;8916;47.086;15.920;2023-04-01T09:20:33;2.60;;;1.25;;
17595;SDS011;8916;47.086;15.920;2023-04-01T09:23:26;0.95;;;0.80;;
17595;SDS011;8916;47.086;15.920;2023-04-01T09:26:18;2.15;;;1.10;;
17595;SDS011;8916;47.086;15.920;2023-04-01T09:29:18;1.75;;;1.00;;
17595;SDS011;8916;47.086;15.920;2023-04-01T09:32:03;1.95;;;0.90;;
17595;SDS011;8916;47.086;15.920;2023-04-01T09:35:10;1.85;;;0.80;;
17595;SDS011;8916;47.086;15.920;2023-04-01T09:38:14;1.33;;;1.00;;
17595;SDS011;8916;47.086;15.920;2023-04-01T09:40:55;1.35;;;0.70;;
17595;SDS011;8916;47.086;15.920;2023-04-01T09:43:50;3.75;;;0.80;;
17595;SDS011;8916;47.086;15.920;2023-04-01T09:46:59;0.90;;;0.70;;
17595;SDS011;8916;47.086;15.920;2023-04-01T09:49:52;1.40;;;0.90;;
17595;SDS011;8916;47.086;15.920;2023-04-01T09:52:42;3.40;;;0.85;;
17595;SDS011;8916;47.086;15.920;2023-04-01T09:55:44;0.40;;;0.40;;
17595;SDS011;8916;47.086;15.920;2023-04-01T09:58:52;0.50;;;0.50;;
17595;SDS011;8916;47.086;15.920;2023-04-01T10:05:38;0.77;;;0.50;;
17595;SDS011;8916;47.086;15.920;2023-04-01T10:12:25;0.93;;;0.75;;
17595;SDS011;8916;47.086;15.920;2023-04-01T10:15:36;0.75;;;0.45;;
17595;SDS011;8916;47.086;15.920;2023-04-01T10:21:49;1.05;;;0.22;;
17595;SDS011;8916;47.086;15.920;2023-04-01T10:24:59;0.45;;;0.40;;
17595;SDS011;8916;47.086;15.920;2023-04-01T10:32:07;0.95;;;0.20;;
17595;SDS011;8916;47.086;15.920;2023-04-01T10:39:01;0.20;;;0.20;;
17595;SDS011;8916;47.086;15.920;2023-04-01T10:42:25;2.15;;;0.50;;
17595;SDS011;8916;47.086;15.920;2023-04-01T10:46:03;0.45;;;0.45;;
17595;SDS011;8916;47.086;15.920;2023-04-01T10:59:20;0.35;;;0.28;;
17595;SDS011;8916;47.086;15.920;2023-04-01T11:06:42;0.50;;;0.22;;
17595;SDS011;8916;47.086;15.920;2023-04-01T11:13:41;0.73;;;0.38;;
17595;SDS011;8916;47.086;15.920;2023-04-01T11:17:04;0.30;;;0.30;;
17595;SDS011;8916;47.086;15.920;2023-04-01T11:20:03;0.80;;;0.40;;
17595;SDS011;8916;47.086;15.920;2023-04-01T11:26:51;0.10;;;0.10;;
17595;SDS011;8916;47.086;15.920;2023-04-01T11:32:56;0.20;;;0.20;;
17595;SDS011;8916;47.086;15.920;2023-04-01T11:35:50;1.15;;;0.50;;
17595;SDS011;8916;47.086;15.920;2023-04-01T11:38:32;0.85;;;0.40;;
17595;SDS011;8916;47.086;15.920;2023-04-01T11:41:46;0.20;;;0.20;;
17595;SDS011;8916;47.086;15.920;2023-04-01T11:44:43;0.35;;;0.30;;
17595;SDS011;8916;47.086;15.920;2023-04-01T11:47:54;0.40;;;0.20;;
17595;SDS011;8916;47.086;15.920;2023-04-01T11:51:00;0.88;;;0.50;;
17595;SDS011;8916;47.086;15.920;2023-04-01T11:53:47;0.20;;;0.15;;
17595;SDS011;8916;47.086;15.920;2023-04-01T11:56:32;0.52;;;0.30;;
17595;SDS011;8916;47.086;15.920;2023-04-01T11:59:29;0.20;;;0.20;;
17595;SDS011;8916;47.086;15.920;2023-04-01T12:05:23;0.45;;;0.43;;
17595;SDS011;8916;47.086;15.920;2023-04-01T12:08:18;0.30;;;0.30;;
17595;SDS011;8916;47.086;15.920;2023-04-01T12:11:00;0.52;;;0.30;;
17595;SDS011;8916;47.086;15.920;2023-04-01T12:13:45;0.52;;;0.20;;
17595;SDS011;8916;47.086;15.920;2023-04-01T12:16:28;0.40;;;0.20;;
17595;SDS011;8916;47.086;15.920;2023-04-01T12:19:13;0.40;;;0.32;;
17595;SDS011;8916;47.086;15.920;2023-04-01T12:21:58;0.75;;;0.40;;
17595;SDS011;8916;47.086;15.920;2023-04-01T12:24:45;0.50;;;0.20;;
17595;SDS011;8916;47.086;15.920;2023-04-01T12:27:27;0.47;;;0.43;;
17595;SDS011;8916;47.086;15.920;2023-04-01T12:30:15;1.52;;;0.30;;
17595;SDS011;8916;47.086;15.920;2023-04-01T12:33:29;0.52;;;0.28;;
17595;SDS011;8916;47.086;15.920;2023-04-01T12:36:24;0.22;;;0.22;;
17595;SDS011;8916;47.086;15.920;2023-04-01T12:39:27;0.10;;;0.10;;
17595;SDS011;8916;47.086;15.920;2023-04-01T12:42:13;0.63;;;0.20;;
17595;SDS011;8916;47.086;15.920;2023-04-01T12:45:00;1.17;;;0.30;;
17595;SDS011;8916;47.086;15.920;2023-04-01T12:47:59;0.30;;;0.30;;
17595;SDS011;8916;47.086;15.920;2023-04-01T12:51:04;0.40;;;0.20;;
17595;SDS011;8916;47.086;15.920;2023-04-01T12:54:15;0.95;;;0.30;;
17595;SDS011;8916;47.086;15.920;2023-04-01T12:57:31;0.20;;;0.20;;
17595;SDS011;8916;47.086;15.920;2023-04-01T13:00:25;0.50;;;0.30;;
17595;SDS011;8916;47.086;15.920;2023-04-01T13:03:15;0.82;;;0.20;;
17595;SDS011;8916;47.086;15.920;2023-04-01T13:06:18;0.28;;;0.20;;
17595;SDS011;8916;47.086;15.920;2023-04-01T13:09:10;0.30;;;0.30;;
17595;SDS011;8916;47.086;15.920;2023-04-01T13:14:44;0.20;;;0.20;;
17595;SDS011;8916;47.086;15.920;2023-04-01T13:17:34;0.28;;;0.20;;
17595;SDS011;8916;47.086;15.920;2023-04-01T13:20:13;1.80;;;0.27;;
17595;SDS011;8916;47.086;15.920;2023-04-01T13:22:53;0.43;;;0.32;;
17595;SDS011;8916;47.086;15.920;2023-04-01T13:25:39;0.38;;;0.20;;
17595;SDS011;8916;47.086;15.920;2023-04-01T13:28:27;0.47;;;0.28;;
17595;SDS011;8916;47.086;15.920;2023-04-01T13:31:01;1.20;;;0.20;;
17595;SDS011;8916;47.086;15.920;2023-04-01T13:33:41;1.48;;;0.30;;
17595;SDS011;8916;47.086;15.920;2023-04-01T13:36:19;0.20;;;0.20;;
17595;SDS011;8916;47.086;15.920;2023-04-01T13:42:20;0.55;;;0.30;;
17595;SDS011;8916;47.086;15.920;2023-04-01T13:44:56;0.65;;;0.35;;
17595;SDS011;8916;47.086;15.920;2023-04-01T13:47:36;0.30;;;0.30;;
17595;SDS011;8916;47.086;15.920;2023-04-01T13:50:52;0.32;;;0.15;;
17595;SDS011;8916;47.086;15.920;2023-04-01T13:53:59;0.10;;;0.10;;
17595;SDS011;8916;47.086;15.920;2023-04-01T13:57:11;0.32;;;0.20;;
17595;SDS011;8916;47.086;15.920;2023-04-01T14:00:01;0.30;;;0.22;;
17595;SDS011;8916;47.086;15.920;2023-04-01T14:02:53;0.20;;;0.20;;
17595;SDS011;8916;47.086;15.920;2023-04-01T14:06:05;0.68;;;0.35;;
17595;SDS011;8916;47.086;15.920;2023-04-01T14:08:55;0.10;;;0.10;;
17595;SDS011;8916;47.086;15.920;2023-04-01T14:11:43;0.63;;;0.28;;
17595;SDS011;8916;47.086;15.920;2023-04-01T14:14:21;1.88;;;1.13;;
17595;SDS011;8916;47.086;15.920;2023-04-01T14:17:10;0.28;;;0.20;;
17595;SDS011;8916;47.086;15.920;2023-04-01T14:20:04;0.20;;;0.20;;
17595;SDS011;8916;47.086;15.920;2023-04-01T14:23:05;1.95;;;0.30;;
17595;SDS011;8916;47.086;15.920;2023-04-01T14:29:29;0.90;;;0.60;;
17595;SDS011;8916;47.086;15.920;2023-04-01T14:32:07;0.85;;;0.28;;
17595;SDS011;8916;47.086;15.920;2023-04-01T14:34:54;0.65;;;0.52;;
17595;SDS011;8916;47.086;15.920;2023-04-01T14:37:55;0.55;;;0.40;;
17595;SDS011;8916;47.086;15.920;2023-04-01T14:40:40;1.08;;;0.50;;
17595;SDS011;8916;47.086;15.920;2023-04-01T14:43:43;0.68;;;0.40;;
17595;SDS011;8916;47.086;15.920;2023-04-01T14:49:49;0.30;;;0.20;;
17595;SDS011;8916;47.086;15.920;2023-04-01T14:52:25;1.02;;;0.50;;
17595;SDS011;8916;47.086;15.920;2023-04-01T14:54:59;0.63;;;0.40;;
17595;SDS011;8916;47.086;15.920;2023-04-01T14:57:31;1.30;;;0.30;;
17595;SDS011;8916;47.086;15.920;2023-04-01T15:00:09;0.20;;;0.20;;
17595;SDS011;8916;47.086;15.920;2023-04-01T15:02:45;0.70;;;0.38;;
17595;SDS011;8916;47.086;15.920;2023-04-01T15:05:32;0.30;;;0.30;;
17595;SDS011;8916;47.086;15.920;2023-04-01T15:08:15;0.93;;;0.25;;
17595;SDS011;8916;47.086;15.920;2023-04-01T15:10:56;0.50;;;0.40;;
17595;SDS011;8916;47.086;15.920;2023-04-01T15:17:13;0.15;;;0.15;;
17595;SDS011;8916;47.086;15.920;2023-04-01T15:20:15;0.77;;;0.45;;
17595;SDS011;8916;47.086;15.920;2023-04-01T15:23:20;0.43;;;0.43;;
17595;SDS011;8916;47.086;15.920;2023-04-01T15:26:09;0.38;;;0.30;;
17595;SDS011;8916;47.086;15.920;2023-04-01T15:28:58;0.43;;;0.40;;
17595;SDS011;8916;47.086;15.920;2023-04-01T15:31:44;1.25;;;0.65;;
17595;SDS011;8916;47.086;15.920;2023-04-01T15:34:26;1.45;;;0.65;;
17595;SDS011;8916;47.086;15.920;2023-04-01T15:37:04;0.20;;;0.20;;
17595;SDS011;8916;47.086;15.920;2023-04-01T15:39:45;1.50;;;0.70;;
17595;SDS011;8916;47.086;15.920;2023-04-01T15:42:31;0.60;;;0.22;;
17595;SDS011;8916;47.086;15.920;2023-04-01T15:45:18;0.43;;;0.20;;
17595;SDS011;8916;47.086;15.920;2023-04-01T15:48:06;0.30;;;0.30;;
17595;SDS011;8916;47.086;15.920;2023-04-01T15:50:55;0.40;;;0.22;;
17595;SDS011;8916;47.086;15.920;2023-04-01T15:56:50;0.55;;;0.52;;
17595;SDS011;8916;47.086;15.920;2023-04-01T15:59:58;0.52;;;0.20;;
17595;SDS011;8916;47.086;15.920;2023-04-01T16:02:42;1.52;;;0.40;;
17595;SDS011;8916;47.086;15.920;2023-04-01T16:05:25;0.35;;;0.30;;
17595;SDS011;8916;47.086;15.920;2023-04-01T16:08:11;1.42;;;0.40;;
17595;SDS011;8916;47.086;15.920;2023-04-01T16:11:01;1.35;;;1.10;;
17595;SDS011;8916;47.086;15.920;2023-04-01T16:13:48;3.22;;;2.75;;
17595;SDS011;8916;47.086;15.920;2023-04-01T16:16:36;3.50;;;2.97;;
17595;SDS011;8916;47.086;15.920;2023-04-01T16:19:25;0.80;;;0.80;;
17595;SDS011;8916;47.086;15.920;2023-04-01T16:22:08;1.30;;;1.30;;
17595;SDS011;8916;47.086;15.920;2023-04-01T16:24:43;1.00;;;1.00;;
17595;SDS011;8916;47.086;15.920;2023-04-01T16:27:23;0.88;;;0.88;;
17595;SDS011;8916;47.086;15.920;2023-04-01T16:30:00;1.25;;;0.90;;
17595;SDS011;8916;47.086;15.920;2023-04-01T16:32:45;2.03;;;0.90;;
17595;SDS011;8916;47.086;15.920;2023-04-01T16:35:22;0.70;;;0.63;;
17595;SDS011;8916;47.086;15.920;2023-04-01T16:38:05;1.13;;;0.90;;
17595;SDS011;8916;47.086;15.920;2023-04-01T16:40:47;0.70;;;0.70;;
17595;SDS011;8916;47.086;15.920;2023-04-01T16:43:35;2.40;;;1.33;;
17595;SDS011;8916;47.086;15.920;2023-04-01T16:46:26;3.45;;;3.15;;
17595;SDS011;8916;47.086;15.920;2023-04-01T16:52:12;1.05;;;0.65;;
17595;SDS011;8916;47.086;15.920;2023-04-01T16:54:45;0.88;;;0.65;;
17595;SDS011;8916;47.086;15.920;2023-04-01T16:57:25;0.85;;;0.60;;
17595;SDS011;8916;47.086;15.920;2023-04-01T17:00:02;3.65;;;1.00;;
17595;SDS011;8916;47.086;15.920;2023-04-01T17:02:46;2.55;;;2.03;;
17595;SDS011;8916;47.086;15.920;2023-04-01T17:05:20;6.32;;;3.75;;
17595;SDS011;8916;47.086;15.920;2023-04-01T17:08:10;4.38;;;3.33;;
17595;SDS011;8916;47.086;15.920;2023-04-01T17:10:56;3.42;;;2.17;;
17595;SDS011;8916;47.086;15.920;2023-04-01T17:13:39;2.70;;;1.50;;
17595;SDS011;8916;47.086;15.920;2023-04-01T17:16:25;2.05;;;1.45;;
17595;SDS011;8916;47.086;15.920;2023-04-01T17:19:11;3.00;;;1.80;;
17595;SDS011;8916;47.086;15.920;2023-04-01T17:21:55;4.75;;;2.67;;
17595;SDS011;8916;47.086;15.920;2023-04-01T17:24:34;4.72;;;2.67;;
17595;SDS011;8916;47.086;15.920;2023-04-01T17:27:24;6.43;;;2.55;;
17595;SDS011;8916;47.086;15.920;2023-04-01T17:33:25;7.97;;;5.80;;
17595;SDS011;8916;47.086;15.920;2023-04-01T17:36:13;10.20;;;6.82;;
17595;SDS011;8916;47.086;15.920;2023-04-01T17:39:01;7.78;;;5.50;;
17595;SDS011;8916;47.086;15.920;2023-04-01T17:41:48;7.18;;;4.95;;
17595;SDS011;8916;47.086;15.920;2023-04-01T17:44:29;11.55;;;5.90;;